Terminal Aerodrome Forecast
Issued by NWS

Home | Current Version | Previous Version | Text Only | Print | Product List | Glossary On
Versions: 1 2 3 4 5 6 7 8 9 10 11 12 13 14 15 16
984
FTUS43 KICT 271134
TAFHUT
TAF
KHUT 271134Z 2712/2812 35010KT P6SM OVC006
     FM271300 35009KT P6SM OVC008
     FM271500 35009KT P6SM OVC012
     FM271600 36009KT P6SM BKN020
     FM271900 03007KT P6SM SCT035
     FM280300 09005KT P6SM SCT200=

USA.gov is the U.S. government's official web portal to all federal, state and local government web resources and services.